Friday, January 19, 2018, 10:35 AM EST
Back to Local

KBDR, Sikorsky Memorial Airport

Location: Stratford, CT, United States Lat: 41.167
Local Time: 10:35 AM EST (15:35 GMT) Lon: -73.133
Time Zone: US/Eastern Elev: 9 ft

Show me the last for .
Show Decoded

2018-01-19 09:52 METAR KBDR 191452Z 25009KT 10SM CLR M02/M09 A3007 RMK AO2 SLP181 T10221094 50006
                 =
2018-01-19 08:52 METAR KBDR 191352Z 27005KT 10SM CLR M03/M09 A3007 RMK AO2 SLP182 T10331094 =
2018-01-19 07:52 METAR KBDR 191252Z 27006KT 10SM CLR M05/M10 A3005 RMK AO2 SLP176 T10501100 =
2018-01-19 06:52 METAR KBDR 191152Z 27006KT 10SM CLR M06/M10 A3005 RMK AO2 SLP174 T10561100 11050
                 21067 51004 =
2018-01-19 05:52 METAR KBDR 191052Z AUTO 26003KT 10SM CLR M06/M10 A3005 RMK AO2 SLP174 T10611100
                 =
2018-01-19 04:52 METAR KBDR 190952Z AUTO 28005KT 10SM CLR M06/M11 A3004 RMK AO2 SLP173 T10611106
                 =
2018-01-19 03:52 METAR KBDR 190852Z AUTO 29007KT 10SM CLR M06/M11 A3004 RMK AO2 SLP171 T10611106
                 53004 =
2018-01-19 02:52 METAR KBDR 190752Z AUTO 24003KT 10SM CLR M06/M10 A3002 RMK AO2 SLP166 T10561100
                 =
2018-01-19 01:52 METAR KBDR 190652Z AUTO 00000KT 10SM CLR M06/M10 A3003 RMK AO2 SLP167 T10561100
                 =
2018-01-19 00:52 METAR KBDR 190552Z AUTO 33003KT 10SM CLR M06/M11 A3003 RMK AO2 SLP167 T10561106
                 11028 21056 58015 =
2018-01-18 23:52 METAR KBDR 190452Z AUTO 32004KT 10SM CLR M05/M11 A3004 RMK AO2 SLP173 T10501106
                 400001083 =
2018-01-18 22:52 METAR KBDR 190352Z AUTO 30007KT 10SM CLR M04/M11 A3006 RMK AO2 SLP179 T10441106
                 =
2018-01-18 21:52 METAR KBDR 190252Z 29004KT 10SM CLR M05/M11 A3007 RMK AO2 SLP182 T10501106 53020
                 =
2018-01-18 20:52 METAR KBDR 190152Z 31003KT 10SM CLR M03/M11 A3004 RMK AO2 SLP173 T10331106 =
2018-01-18 19:52 METAR KBDR 190052Z 32008KT 10SM CLR M03/M11 A3003 RMK AO2 SLP169 T10281106 =
2018-01-18 18:52 METAR KBDR 182352Z 32009KT 10SM CLR M03/M11 A3001 RMK AO2 SLP162 T10281106 10000
                 21028 53030 =
2018-01-18 17:52 METAR KBDR 182252Z 33008KT 10SM CLR M02/M11 A2998 RMK AO2 SLP152 T10221106 =
2018-01-18 16:52 METAR KBDR 182152Z 34011KT 10SM CLR M02/M11 A2995 RMK AO2 SLP140 T10171111 =
2018-01-18 15:52 METAR KBDR 182052Z 32013KT 10SM CLR M01/M11 A2992 RMK AO2 SLP131 T10061111 55001
                 =
2018-01-18 14:52 METAR KBDR 181952Z 31010KT 10SM CLR 00/M11 A2990 RMK AO2 SLP126 T00001106 =
2018-01-18 13:52 METAR KBDR 181852Z 30011KT 10SM CLR M01/M12 A2991 RMK AO2 SLP127 T10061117 =
2018-01-18 12:52 METAR KBDR 181752Z 32014G20KT 10SM CLR M01/M12 A2992 RMK AO2 SLP133 T10061117
                 11006 21083 58035 =
2018-01-18 11:52 METAR KBDR 181652Z 30011KT 10SM CLR M01/M11 A2997 RMK AO2 SLP148 T10111111 =
2018-01-18 10:52 METAR KBDR 181552Z VRB05KT 10SM CLR M02/M11 A3002 RMK AO2 SLP165 T10171111 =

Support USWX by starting your Amazon purchase here.